SBFZ/FOR METAR and TAF weather

Enter ICAO airport designator
Station Type Date Time Source
SBFZ METAR 2022/12/08 12:00 UTC NOAA

SBFZ 081200Z 11017KT 9999 BKN025 29/22 Q1011


Station Type Date Time Source
SBFZ Decoded METAR 2022/12/08 12:00 UTC NOAA

Fortaleza / pinto Martins , Brazil (SBFZ) 03-47S 038-32W 25M
Dec 08, 2022 - 07:00 AM EST / 2022.12.08 1200 UTC
Wind: from the ESE (110 degrees) at 20 MPH (17 KT):0
Visibility: greater than 7 mile(s):0
Sky conditions: mostly cloudy
Temperature: 84 F (29 C)
Dew Point: 71 F (22 C)
Relative Humidity: 65%
Pressure (altimeter): 29.85 in. Hg (1011 hPa)
ob: SBFZ 081200Z 11017KT 9999 BKN025 29/22 Q1011
cycle: 12

Station Type Date Time Source
SBFZ TAF 2022/12/08 12:50 UTC NOAA

TAF SBFZ 080845Z 0812/0912 14006KT 9999 SCT020 TX32/0817Z TN26/0908Z
TEMPO 0812/0824 11013G23KT
BECMG 0900/0902 09006KT
BECMG 0906/0908 12006KT
RMK PGW

Example: see airport list